sensor_id;sensor_type;location;lat;lon;timestamp;P1;durP1;ratioP1;P2;durP2;ratioP2
56477;SDS011;42382;53.210;5.772;2022-12-11T00:00:50;123.63;;;24.88;;
56477;SDS011;42382;53.210;5.772;2022-12-11T00:03:16;139.52;;;26.10;;
56477;SDS011;42382;53.210;5.772;2022-12-11T00:05:42;143.10;;;25.92;;
56477;SDS011;42382;53.210;5.772;2022-12-11T00:08:08;135.32;;;27.58;;
56477;SDS011;42382;53.210;5.772;2022-12-11T00:10:35;134.38;;;26.48;;
56477;SDS011;42382;53.210;5.772;2022-12-11T00:13:01;197.15;;;30.58;;
56477;SDS011;42382;53.210;5.772;2022-12-11T00:15:27;130.25;;;27.45;;
56477;SDS011;42382;53.210;5.772;2022-12-11T00:17:53;149.90;;;29.63;;
56477;SDS011;42382;53.210;5.772;2022-12-11T00:20:20;138.93;;;28.30;;
56477;SDS011;42382;53.210;5.772;2022-12-11T00:22:46;131.48;;;29.45;;
56477;SDS011;42382;53.210;5.772;2022-12-11T00:25:12;132.00;;;27.10;;
56477;SDS011;42382;53.210;5.772;2022-12-11T00:27:38;150.50;;;31.85;;
56477;SDS011;42382;53.210;5.772;2022-12-11T00:30:04;125.18;;;27.48;;
56477;SDS011;42382;53.210;5.772;2022-12-11T00:32:30;119.55;;;27.85;;
56477;SDS011;42382;53.210;5.772;2022-12-11T00:34:56;141.93;;;29.63;;
56477;SDS011;42382;53.210;5.772;2022-12-11T00:37:22;126.50;;;27.48;;
56477;SDS011;42382;53.210;5.772;2022-12-11T00:39:48;144.07;;;29.55;;
56477;SDS011;42382;53.210;5.772;2022-12-11T00:42:14;113.20;;;25.88;;
56477;SDS011;42382;53.210;5.772;2022-12-11T00:44:40;125.78;;;30.55;;
56477;SDS011;42382;53.210;5.772;2022-12-11T00:47:06;155.00;;;31.95;;
56477;SDS011;42382;53.210;5.772;2022-12-11T00:49:32;124.80;;;27.90;;
56477;SDS011;42382;53.210;5.772;2022-12-11T00:51:58;115.00;;;27.85;;
56477;SDS011;42382;53.210;5.772;2022-12-11T00:54:24;99.15;;;24.92;;
56477;SDS011;42382;53.210;5.772;2022-12-11T00:56:50;108.97;;;27.92;;
56477;SDS011;42382;53.210;5.772;2022-12-11T00:59:16;114.15;;;28.10;;
56477;SDS011;42382;53.210;5.772;2022-12-11T01:01:42;107.30;;;26.77;;
56477;SDS011;42382;53.210;5.772;2022-12-11T01:04:08;115.20;;;26.67;;
56477;SDS011;42382;53.210;5.772;2022-12-11T01:06:34;112.65;;;26.25;;
56477;SDS011;42382;53.210;5.772;2022-12-11T01:09:00;119.82;;;27.80;;
56477;SDS011;42382;53.210;5.772;2022-12-11T01:11:45;108.45;;;27.10;;
56477;SDS011;42382;53.210;5.772;2022-12-11T01:14:11;108.07;;;27.73;;
56477;SDS011;42382;53.210;5.772;2022-12-11T01:16:37;116.72;;;27.25;;
56477;SDS011;42382;53.210;5.772;2022-12-11T01:19:03;110.25;;;26.75;;
56477;SDS011;42382;53.210;5.772;2022-12-11T01:21:29;113.28;;;28.38;;
56477;SDS011;42382;53.210;5.772;2022-12-11T01:23:55;116.47;;;26.95;;
56477;SDS011;42382;53.210;5.772;2022-12-11T01:26:21;111.68;;;27.02;;
56477;SDS011;42382;53.210;5.772;2022-12-11T01:28:48;107.30;;;27.85;;
56477;SDS011;42382;53.210;5.772;2022-12-11T01:31:15;112.50;;;27.08;;
56477;SDS011;42382;53.210;5.772;2022-12-11T01:33:42;107.85;;;27.52;;
56477;SDS011;42382;53.210;5.772;2022-12-11T01:36:09;118.00;;;27.98;;
56477;SDS011;42382;53.210;5.772;2022-12-11T01:38:35;95.05;;;26.35;;
56477;SDS011;42382;53.210;5.772;2022-12-11T01:41:01;109.82;;;26.70;;
56477;SDS011;42382;53.210;5.772;2022-12-11T01:43:27;97.88;;;25.90;;
56477;SDS011;42382;53.210;5.772;2022-12-11T01:45:53;107.82;;;26.27;;
56477;SDS011;42382;53.210;5.772;2022-12-11T01:48:20;109.60;;;27.75;;
56477;SDS011;42382;53.210;5.772;2022-12-11T01:53:15;101.90;;;26.00;;
56477;SDS011;42382;53.210;5.772;2022-12-11T01:55:42;109.90;;;26.67;;
56477;SDS011;42382;53.210;5.772;2022-12-11T01:58:09;99.72;;;27.10;;
56477;SDS011;42382;53.210;5.772;2022-12-11T02:00:35;100.88;;;26.95;;
56477;SDS011;42382;53.210;5.772;2022-12-11T02:03:01;109.38;;;27.48;;
56477;SDS011;42382;53.210;5.772;2022-12-11T02:05:27;101.95;;;26.63;;
56477;SDS011;42382;53.210;5.772;2022-12-11T02:07:57;110.68;;;28.00;;
56477;SDS011;42382;53.210;5.772;2022-12-11T02:10:26;99.22;;;26.23;;
56477;SDS011;42382;53.210;5.772;2022-12-11T02:12:59;103.40;;;27.08;;
56477;SDS011;42382;53.210;5.772;2022-12-11T02:15:36;98.35;;;27.38;;
56477;SDS011;42382;53.210;5.772;2022-12-11T02:28:22;87.37;;;25.50;;
56477;SDS011;42382;53.210;5.772;2022-12-11T02:30:54;92.40;;;26.85;;
56477;SDS011;42382;53.210;5.772;2022-12-11T02:33:29;99.35;;;26.95;;
56477;SDS011;42382;53.210;5.772;2022-12-11T02:38:33;89.22;;;25.65;;
56477;SDS011;42382;53.210;5.772;2022-12-11T02:41:01;86.43;;;25.88;;
56477;SDS011;42382;53.210;5.772;2022-12-11T02:43:27;78.47;;;26.13;;
56477;SDS011;42382;53.210;5.772;2022-12-11T02:45:55;91.75;;;27.48;;
56477;SDS011;42382;53.210;5.772;2022-12-11T02:48:22;87.63;;;28.08;;
56477;SDS011;42382;53.210;5.772;2022-12-11T02:50:49;80.57;;;26.42;;
56477;SDS011;42382;53.210;5.772;2022-12-11T02:53:17;80.65;;;26.52;;
56477;SDS011;42382;53.210;5.772;2022-12-11T02:55:45;88.43;;;26.25;;
56477;SDS011;42382;53.210;5.772;2022-12-11T02:58:17;94.70;;;27.80;;
56477;SDS011;42382;53.210;5.772;2022-12-11T03:00:44;87.45;;;26.45;;
56477;SDS011;42382;53.210;5.772;2022-12-11T03:03:10;91.90;;;27.88;;
56477;SDS011;42382;53.210;5.772;2022-12-11T03:05:36;87.20;;;28.73;;
56477;SDS011;42382;53.210;5.772;2022-12-11T03:08:05;87.50;;;27.67;;
56477;SDS011;42382;53.210;5.772;2022-12-11T03:10:31;84.40;;;26.98;;
56477;SDS011;42382;53.210;5.772;2022-12-11T03:12:58;86.20;;;26.73;;
56477;SDS011;42382;53.210;5.772;2022-12-11T03:15:32;95.35;;;27.63;;
56477;SDS011;42382;53.210;5.772;2022-12-11T03:18:05;97.40;;;27.65;;
56477;SDS011;42382;53.210;5.772;2022-12-11T03:23:05;108.55;;;29.92;;
56477;SDS011;42382;53.210;5.772;2022-12-11T03:25:38;108.45;;;29.05;;
56477;SDS011;42382;53.210;5.772;2022-12-11T03:30:34;117.70;;;31.17;;
56477;SDS011;42382;53.210;5.772;2022-12-11T03:33:02;110.18;;;30.88;;
56477;SDS011;42382;53.210;5.772;2022-12-11T03:37:59;138.60;;;34.28;;
56477;SDS011;42382;53.210;5.772;2022-12-11T03:40:26;117.40;;;30.13;;
56477;SDS011;42382;53.210;5.772;2022-12-11T03:42:54;117.47;;;32.05;;
56477;SDS011;42382;53.210;5.772;2022-12-11T03:45:21;128.18;;;31.40;;
56477;SDS011;42382;53.210;5.772;2022-12-11T03:47:47;124.88;;;32.28;;
56477;SDS011;42382;53.210;5.772;2022-12-11T03:50:15;132.88;;;33.92;;
56477;SDS011;42382;53.210;5.772;2022-12-11T03:52:43;136.35;;;33.72;;
56477;SDS011;42382;53.210;5.772;2022-12-11T03:55:11;121.63;;;31.00;;
56477;SDS011;42382;53.210;5.772;2022-12-11T03:57:38;118.68;;;33.95;;
56477;SDS011;42382;53.210;5.772;2022-12-11T04:00:05;128.02;;;32.30;;
56477;SDS011;42382;53.210;5.772;2022-12-11T04:02:31;135.73;;;33.42;;
56477;SDS011;42382;53.210;5.772;2022-12-11T04:04:57;129.35;;;33.90;;
56477;SDS011;42382;53.210;5.772;2022-12-11T04:07:23;125.70;;;32.13;;
56477;SDS011;42382;53.210;5.772;2022-12-11T04:09:49;128.38;;;31.98;;
56477;SDS011;42382;53.210;5.772;2022-12-11T04:12:15;133.32;;;32.83;;
56477;SDS011;42382;53.210;5.772;2022-12-11T04:14:41;123.72;;;31.80;;
56477;SDS011;42382;53.210;5.772;2022-12-11T04:17:26;130.35;;;32.83;;
56477;SDS011;42382;53.210;5.772;2022-12-11T04:20:27;127.32;;;32.70;;
56477;SDS011;42382;53.210;5.772;2022-12-11T04:23:13;132.40;;;33.22;;
56477;SDS011;42382;53.210;5.772;2022-12-11T04:26:09;141.27;;;32.60;;
56477;SDS011;42382;53.210;5.772;2022-12-11T04:28:35;148.30;;;33.15;;
56477;SDS011;42382;53.210;5.772;2022-12-11T04:31:02;131.57;;;32.42;;
56477;SDS011;42382;53.210;5.772;2022-12-11T04:33:28;144.20;;;33.25;;
56477;SDS011;42382;53.210;5.772;2022-12-11T04:35:56;138.13;;;31.88;;
56477;SDS011;42382;53.210;5.772;2022-12-11T04:38:22;139.68;;;33.63;;
56477;SDS011;42382;53.210;5.772;2022-12-11T04:40:48;140.38;;;34.17;;
56477;SDS011;42382;53.210;5.772;2022-12-11T04:43:14;122.20;;;30.63;;
56477;SDS011;42382;53.210;5.772;2022-12-11T04:45:40;136.40;;;33.08;;
56477;SDS011;42382;53.210;5.772;2022-12-11T04:48:06;132.70;;;32.25;;
56477;SDS011;42382;53.210;5.772;2022-12-11T04:50:32;126.88;;;32.00;;
56477;SDS011;42382;53.210;5.772;2022-12-11T04:52:58;127.25;;;32.92;;
56477;SDS011;42382;53.210;5.772;2022-12-11T04:55:24;132.75;;;32.83;;
56477;SDS011;42382;53.210;5.772;2022-12-11T04:57:50;126.53;;;34.30;;
56477;SDS011;42382;53.210;5.772;2022-12-11T05:00:16;129.48;;;31.40;;
56477;SDS011;42382;53.210;5.772;2022-12-11T05:02:42;120.28;;;32.30;;
56477;SDS011;42382;53.210;5.772;2022-12-11T05:05:09;127.65;;;31.15;;
56477;SDS011;42382;53.210;5.772;2022-12-11T05:07:35;107.65;;;28.20;;
56477;SDS011;42382;53.210;5.772;2022-12-11T05:10:02;124.18;;;32.05;;
56477;SDS011;42382;53.210;5.772;2022-12-11T05:12:28;119.80;;;29.42;;
56477;SDS011;42382;53.210;5.772;2022-12-11T05:14:56;122.20;;;30.85;;
56477;SDS011;42382;53.210;5.772;2022-12-11T05:17:25;107.68;;;31.02;;
56477;SDS011;42382;53.210;5.772;2022-12-11T05:19:51;113.85;;;31.77;;
56477;SDS011;42382;53.210;5.772;2022-12-11T05:22:17;116.72;;;29.80;;
56477;SDS011;42382;53.210;5.772;2022-12-11T05:24:43;112.88;;;30.75;;
56477;SDS011;42382;53.210;5.772;2022-12-11T05:27:10;111.75;;;29.80;;
56477;SDS011;42382;53.210;5.772;2022-12-11T05:29:36;102.72;;;28.27;;
56477;SDS011;42382;53.210;5.772;2022-12-11T05:32:02;119.28;;;30.15;;
56477;SDS011;42382;53.210;5.772;2022-12-11T05:34:28;110.85;;;30.40;;
56477;SDS011;42382;53.210;5.772;2022-12-11T05:36:54;116.38;;;29.80;;
56477;SDS011;42382;53.210;5.772;2022-12-11T05:39:20;131.10;;;32.28;;
56477;SDS011;42382;53.210;5.772;2022-12-11T05:41:46;106.95;;;28.95;;
56477;SDS011;42382;53.210;5.772;2022-12-11T05:44:12;109.45;;;29.92;;
56477;SDS011;42382;53.210;5.772;2022-12-11T05:46:38;103.55;;;29.88;;
56477;SDS011;42382;53.210;5.772;2022-12-11T05:49:05;110.90;;;29.35;;
56477;SDS011;42382;53.210;5.772;2022-12-11T05:51:31;99.10;;;28.23;;
56477;SDS011;42382;53.210;5.772;2022-12-11T05:53:58;104.47;;;29.73;;
56477;SDS011;42382;53.210;5.772;2022-12-11T05:56:25;101.13;;;27.80;;
56477;SDS011;42382;53.210;5.772;2022-12-11T05:58:52;97.10;;;26.17;;
56477;SDS011;42382;53.210;5.772;2022-12-11T06:01:20;97.38;;;28.70;;
56477;SDS011;42382;53.210;5.772;2022-12-11T06:03:46;98.50;;;29.73;;
56477;SDS011;42382;53.210;5.772;2022-12-11T06:06:12;102.60;;;27.73;;
56477;SDS011;42382;53.210;5.772;2022-12-11T06:08:39;96.65;;;27.17;;
56477;SDS011;42382;53.210;5.772;2022-12-11T06:11:05;96.43;;;27.10;;
56477;SDS011;42382;53.210;5.772;2022-12-11T06:13:31;101.70;;;27.65;;
56477;SDS011;42382;53.210;5.772;2022-12-11T06:16:01;94.18;;;28.40;;
56477;SDS011;42382;53.210;5.772;2022-12-11T06:18:27;102.55;;;27.98;;
56477;SDS011;42382;53.210;5.772;2022-12-11T06:20:53;96.65;;;26.73;;
56477;SDS011;42382;53.210;5.772;2022-12-11T06:23:19;99.45;;;27.90;;
56477;SDS011;42382;53.210;5.772;2022-12-11T06:25:45;93.10;;;26.65;;
56477;SDS011;42382;53.210;5.772;2022-12-11T06:28:11;101.65;;;28.23;;
56477;SDS011;42382;53.210;5.772;2022-12-11T06:30:37;97.07;;;27.48;;
56477;SDS011;42382;53.210;5.772;2022-12-11T06:33:03;101.03;;;29.10;;
56477;SDS011;42382;53.210;5.772;2022-12-11T06:35:29;92.13;;;27.27;;
56477;SDS011;42382;53.210;5.772;2022-12-11T06:37:55;97.57;;;27.80;;
56477;SDS011;42382;53.210;5.772;2022-12-11T06:40:21;94.32;;;27.30;;
56477;SDS011;42382;53.210;5.772;2022-12-11T06:42:47;105.50;;;28.35;;
56477;SDS011;42382;53.210;5.772;2022-12-11T06:45:13;96.85;;;26.63;;
56477;SDS011;42382;53.210;5.772;2022-12-11T06:47:39;100.80;;;29.67;;
56477;SDS011;42382;53.210;5.772;2022-12-11T06:50:05;110.57;;;28.10;;
56477;SDS011;42382;53.210;5.772;2022-12-11T06:52:31;88.97;;;26.65;;
56477;SDS011;42382;53.210;5.772;2022-12-11T06:54:57;101.72;;;28.80;;
56477;SDS011;42382;53.210;5.772;2022-12-11T06:57:24;97.13;;;28.00;;
56477;SDS011;42382;53.210;5.772;2022-12-11T06:59:50;88.13;;;26.77;;
56477;SDS011;42382;53.210;5.772;2022-12-11T07:02:17;107.47;;;29.67;;
56477;SDS011;42382;53.210;5.772;2022-12-11T07:04:44;97.07;;;28.77;;
56477;SDS011;42382;53.210;5.772;2022-12-11T07:07:10;100.88;;;27.38;;
56477;SDS011;42382;53.210;5.772;2022-12-11T07:09:37;93.35;;;28.35;;
56477;SDS011;42382;53.210;5.772;2022-12-11T07:12:03;96.82;;;28.27;;
56477;SDS011;42382;53.210;5.772;2022-12-11T07:14:29;95.43;;;27.73;;
56477;SDS011;42382;53.210;5.772;2022-12-11T07:16:56;84.38;;;25.80;;
56477;SDS011;42382;53.210;5.772;2022-12-11T07:19:22;95.25;;;28.38;;
56477;SDS011;42382;53.210;5.772;2022-12-11T07:21:48;99.78;;;27.77;;
56477;SDS011;42382;53.210;5.772;2022-12-11T07:24:14;89.53;;;27.08;;
56477;SDS011;42382;53.210;5.772;2022-12-11T07:26:40;93.82;;;28.33;;
56477;SDS011;42382;53.210;5.772;2022-12-11T07:29:06;100.40;;;27.80;;
56477;SDS011;42382;53.210;5.772;2022-12-11T07:31:33;99.80;;;28.23;;
56477;SDS011;42382;53.210;5.772;2022-12-11T07:34:00;95.40;;;27.98;;
56477;SDS011;42382;53.210;5.772;2022-12-11T07:36:27;94.15;;;27.20;;
56477;SDS011;42382;53.210;5.772;2022-12-11T07:38:53;100.43;;;30.00;;
56477;SDS011;42382;53.210;5.772;2022-12-11T07:41:19;98.85;;;29.10;;
56477;SDS011;42382;53.210;5.772;2022-12-11T07:43:45;113.60;;;29.75;;
56477;SDS011;42382;53.210;5.772;2022-12-11T07:46:12;92.28;;;27.15;;
56477;SDS011;42382;53.210;5.772;2022-12-11T07:48:39;98.68;;;28.33;;
56477;SDS011;42382;53.210;5.772;2022-12-11T07:53:43;95.43;;;28.58;;
56477;SDS011;42382;53.210;5.772;2022-12-11T07:56:10;104.38;;;30.35;;
56477;SDS011;42382;53.210;5.772;2022-12-11T07:58:36;106.40;;;28.27;;
56477;SDS011;42382;53.210;5.772;2022-12-11T08:01:03;104.13;;;27.90;;
56477;SDS011;42382;53.210;5.772;2022-12-11T08:03:29;96.28;;;28.50;;
56477;SDS011;42382;53.210;5.772;2022-12-11T08:05:55;99.32;;;29.55;;
56477;SDS011;42382;53.210;5.772;2022-12-11T08:08:22;103.00;;;29.88;;
56477;SDS011;42382;53.210;5.772;2022-12-11T08:10:48;106.32;;;29.42;;
56477;SDS011;42382;53.210;5.772;2022-12-11T08:13:14;99.05;;;30.73;;
56477;SDS011;42382;53.210;5.772;2022-12-11T08:15:40;98.18;;;28.67;;
56477;SDS011;42382;53.210;5.772;2022-12-11T08:18:06;100.93;;;29.13;;
56477;SDS011;42382;53.210;5.772;2022-12-11T08:20:31;94.68;;;28.58;;
56477;SDS011;42382;53.210;5.772;2022-12-11T08:22:57;100.40;;;29.48;;
56477;SDS011;42382;53.210;5.772;2022-12-11T08:25:24;97.78;;;29.63;;
56477;SDS011;42382;53.210;5.772;2022-12-11T08:27:50;92.45;;;27.92;;
56477;SDS011;42382;53.210;5.772;2022-12-11T08:30:16;84.97;;;28.02;;
56477;SDS011;42382;53.210;5.772;2022-12-11T08:32:42;98.47;;;30.27;;
56477;SDS011;42382;53.210;5.772;2022-12-11T08:35:08;95.43;;;28.35;;
56477;SDS011;42382;53.210;5.772;2022-12-11T08:37:34;95.47;;;27.88;;
56477;SDS011;42382;53.210;5.772;2022-12-11T08:40:00;90.72;;;27.90;;
56477;SDS011;42382;53.210;5.772;2022-12-11T08:42:29;90.15;;;28.48;;
56477;SDS011;42382;53.210;5.772;2022-12-11T08:44:55;89.78;;;28.23;;
56477;SDS011;42382;53.210;5.772;2022-12-11T08:47:21;93.75;;;26.88;;
56477;SDS011;42382;53.210;5.772;2022-12-11T08:49:47;90.20;;;28.98;;
56477;SDS011;42382;53.210;5.772;2022-12-11T08:52:13;90.22;;;27.33;;
56477;SDS011;42382;53.210;5.772;2022-12-11T08:54:39;87.72;;;26.38;;
56477;SDS011;42382;53.210;5.772;2022-12-11T08:57:05;90.45;;;27.42;;
56477;SDS011;42382;53.210;5.772;2022-12-11T08:59:31;85.45;;;26.48;;
56477;SDS011;42382;53.210;5.772;2022-12-11T09:01:57;87.90;;;29.15;;
56477;SDS011;42382;53.210;5.772;2022-12-11T09:04:23;84.07;;;27.05;;
56477;SDS011;42382;53.210;5.772;2022-12-11T09:06:49;93.32;;;28.90;;
56477;SDS011;42382;53.210;5.772;2022-12-11T09:09:15;89.13;;;28.40;;
56477;SDS011;42382;53.210;5.772;2022-12-11T09:11:41;88.70;;;27.63;;
56477;SDS011;42382;53.210;5.772;2022-12-11T09:14:07;90.32;;;28.27;;
56477;SDS011;42382;53.210;5.772;2022-12-11T09:16:32;95.35;;;29.63;;
56477;SDS011;42382;53.210;5.772;2022-12-11T09:19:01;79.32;;;26.85;;
56477;SDS011;42382;53.210;5.772;2022-12-11T09:21:28;86.53;;;26.70;;
56477;SDS011;42382;53.210;5.772;2022-12-11T09:23:55;85.40;;;27.70;;
56477;SDS011;42382;53.210;5.772;2022-12-11T09:26:22;87.70;;;27.50;;
56477;SDS011;42382;53.210;5.772;2022-12-11T09:28:49;79.53;;;27.52;;
56477;SDS011;42382;53.210;5.772;2022-12-11T09:31:22;87.03;;;27.88;;
56477;SDS011;42382;53.210;5.772;2022-12-11T09:33:49;73.50;;;26.92;;
56477;SDS011;42382;53.210;5.772;2022-12-11T09:36:17;79.63;;;26.95;;
56477;SDS011;42382;53.210;5.772;2022-12-11T09:38:43;79.00;;;26.15;;
56477;SDS011;42382;53.210;5.772;2022-12-11T09:41:26;69.32;;;25.75;;
56477;SDS011;42382;53.210;5.772;2022-12-11T09:44:12;82.40;;;28.35;;
56477;SDS011;42382;53.210;5.772;2022-12-11T09:46:42;72.43;;;26.48;;
56477;SDS011;42382;53.210;5.772;2022-12-11T09:49:42;77.03;;;27.38;;
56477;SDS011;42382;53.210;5.772;2022-12-11T09:55:17;79.03;;;25.40;;
56477;SDS011;42382;53.210;5.772;2022-12-11T10:00:48;73.75;;;25.42;;
56477;SDS011;42382;53.210;5.772;2022-12-11T10:03:27;71.65;;;25.15;;
56477;SDS011;42382;53.210;5.772;2022-12-11T10:06:02;73.05;;;25.90;;
56477;SDS011;42382;53.210;5.772;2022-12-11T10:08:43;75.18;;;26.25;;
56477;SDS011;42382;53.210;5.772;2022-12-11T10:16:53;61.25;;;23.00;;
56477;SDS011;42382;53.210;5.772;2022-12-11T10:19:27;58.45;;;23.65;;
56477;SDS011;42382;53.210;5.772;2022-12-11T10:21:54;57.83;;;24.00;;
56477;SDS011;42382;53.210;5.772;2022-12-11T10:24:26;59.53;;;22.67;;
56477;SDS011;42382;53.210;5.772;2022-12-11T10:27:12;53.25;;;21.38;;
56477;SDS011;42382;53.210;5.772;2022-12-11T10:29:43;55.25;;;23.73;;
56477;SDS011;42382;53.210;5.772;2022-12-11T10:32:20;50.15;;;22.02;;
56477;SDS011;42382;53.210;5.772;2022-12-11T10:34:49;48.92;;;20.85;;
56477;SDS011;42382;53.210;5.772;2022-12-11T10:37:23;48.65;;;22.67;;
56477;SDS011;42382;53.210;5.772;2022-12-11T10:39:49;46.72;;;21.88;;
56477;SDS011;42382;53.210;5.772;2022-12-11T10:42:16;55.85;;;23.75;;
56477;SDS011;42382;53.210;5.772;2022-12-11T10:44:57;54.42;;;24.10;;
56477;SDS011;42382;53.210;5.772;2022-12-11T10:47:27;57.20;;;24.45;;
56477;SDS011;42382;53.210;5.772;2022-12-11T10:49:55;51.10;;;21.95;;
56477;SDS011;42382;53.210;5.772;2022-12-11T10:52:26;56.15;;;23.63;;
56477;SDS011;42382;53.210;5.772;2022-12-11T10:55:05;51.42;;;23.05;;
56477;SDS011;42382;53.210;5.772;2022-12-11T10:57:41;58.03;;;24.42;;
56477;SDS011;42382;53.210;5.772;2022-12-11T11:00:22;51.97;;;23.75;;
56477;SDS011;42382;53.210;5.772;2022-12-11T11:03:03;56.38;;;24.05;;
56477;SDS011;42382;53.210;5.772;2022-12-11T11:05:34;55.53;;;24.27;;
56477;SDS011;42382;53.210;5.772;2022-12-11T11:08:12;56.78;;;25.02;;
56477;SDS011;42382;53.210;5.772;2022-12-11T11:13:23;62.88;;;25.23;;
56477;SDS011;42382;53.210;5.772;2022-12-11T11:16:06;58.70;;;24.45;;
56477;SDS011;42382;53.210;5.772;2022-12-11T11:18:36;58.13;;;25.55;;
56477;SDS011;42382;53.210;5.772;2022-12-11T11:21:04;58.47;;;24.45;;
56477;SDS011;42382;53.210;5.772;2022-12-11T11:23:31;58.88;;;25.02;;
56477;SDS011;42382;53.210;5.772;2022-12-11T11:26:05;60.28;;;25.77;;
56477;SDS011;42382;53.210;5.772;2022-12-11T11:28:33;58.90;;;25.85;;
56477;SDS011;42382;53.210;5.772;2022-12-11T11:31:02;56.10;;;26.85;;
56477;SDS011;42382;53.210;5.772;2022-12-11T11:33:32;55.40;;;25.55;;
56477;SDS011;42382;53.210;5.772;2022-12-11T11:38:49;53.50;;;24.50;;
56477;SDS011;42382;53.210;5.772;2022-12-11T11:44:41;60.58;;;26.33;;
56477;SDS011;42382;53.210;5.772;2022-12-11T11:47:26;55.50;;;26.67;;
56477;SDS011;42382;53.210;5.772;2022-12-11T11:49:59;56.63;;;25.60;;
56477;SDS011;42382;53.210;5.772;2022-12-11T11:52:32;53.22;;;26.67;;
56477;SDS011;42382;53.210;5.772;2022-12-11T11:57:52;55.25;;;25.48;;
56477;SDS011;42382;53.210;5.772;2022-12-11T12:00:26;53.83;;;25.77;;
56477;SDS011;42382;53.210;5.772;2022-12-11T12:03:00;56.72;;;25.98;;
56477;SDS011;42382;53.210;5.772;2022-12-11T12:05:44;50.35;;;24.40;;
56477;SDS011;42382;53.210;5.772;2022-12-11T12:11:04;53.15;;;25.10;;
56477;SDS011;42382;53.210;5.772;2022-12-11T12:16:21;48.40;;;24.48;;
56477;SDS011;42382;53.210;5.772;2022-12-11T12:19:00;46.47;;;24.05;;
56477;SDS011;42382;53.210;5.772;2022-12-11T12:21:37;45.58;;;23.60;;
56477;SDS011;42382;53.210;5.772;2022-12-11T12:30:10;49.00;;;23.42;;
56477;SDS011;42382;53.210;5.772;2022-12-11T12:35:35;45.88;;;23.73;;
56477;SDS011;42382;53.210;5.772;2022-12-11T12:38:16;45.88;;;23.15;;
56477;SDS011;42382;53.210;5.772;2022-12-11T12:41:07;45.50;;;24.02;;
56477;SDS011;42382;53.210;5.772;2022-12-11T12:43:55;44.47;;;23.35;;
56477;SDS011;42382;53.210;5.772;2022-12-11T12:51:58;50.03;;;25.27;;
56477;SDS011;42382;53.210;5.772;2022-12-11T12:54:25;48.67;;;24.25;;
56477;SDS011;42382;53.210;5.772;2022-12-11T12:56:53;41.83;;;22.52;;
56477;SDS011;42382;53.210;5.772;2022-12-11T12:59:21;48.00;;;24.15;;
56477;SDS011;42382;53.210;5.772;2022-12-11T13:01:49;48.85;;;25.77;;
56477;SDS011;42382;53.210;5.772;2022-12-11T13:04:39;47.03;;;24.67;;
56477;SDS011;42382;53.210;5.772;2022-12-11T13:07:26;60.70;;;31.55;;
56477;SDS011;42382;53.210;5.772;2022-12-11T13:10:07;57.42;;;28.50;;
56477;SDS011;42382;53.210;5.772;2022-12-11T13:12:48;59.83;;;29.30;;
56477;SDS011;42382;53.210;5.772;2022-12-11T13:15:23;47.83;;;25.23;;
56477;SDS011;42382;53.210;5.772;2022-12-11T13:17:55;50.80;;;26.67;;
56477;SDS011;42382;53.210;5.772;2022-12-11T13:20:22;51.20;;;25.73;;
56477;SDS011;42382;53.210;5.772;2022-12-11T13:22:52;50.78;;;24.08;;
56477;SDS011;42382;53.210;5.772;2022-12-11T13:25:23;48.35;;;24.48;;
56477;SDS011;42382;53.210;5.772;2022-12-11T13:28:04;49.55;;;26.13;;
56477;SDS011;42382;53.210;5.772;2022-12-11T13:30:31;48.55;;;24.88;;
56477;SDS011;42382;53.210;5.772;2022-12-11T13:35:31;45.95;;;23.80;;
56477;SDS011;42382;53.210;5.772;2022-12-11T13:38:00;44.47;;;22.98;;
56477;SDS011;42382;53.210;5.772;2022-12-11T13:40:35;43.85;;;22.90;;
56477;SDS011;42382;53.210;5.772;2022-12-11T13:43:21;45.30;;;24.58;;
56477;SDS011;42382;53.210;5.772;2022-12-11T13:48:26;44.78;;;22.95;;
56477;SDS011;42382;53.210;5.772;2022-12-11T13:51:01;46.17;;;24.77;;
56477;SDS011;42382;53.210;5.772;2022-12-11T13:53:28;49.25;;;25.10;;
56477;SDS011;42382;53.210;5.772;2022-12-11T13:55:59;43.58;;;23.92;;
56477;SDS011;42382;53.210;5.772;2022-12-11T13:58:26;42.83;;;22.55;;
56477;SDS011;42382;53.210;5.772;2022-12-11T14:01:00;45.47;;;22.90;;
56477;SDS011;42382;53.210;5.772;2022-12-11T14:03:32;44.03;;;21.55;;
56477;SDS011;42382;53.210;5.772;2022-12-11T14:06:01;45.85;;;23.48;;
56477;SDS011;42382;53.210;5.772;2022-12-11T14:08:32;39.10;;;20.60;;
56477;SDS011;42382;53.210;5.772;2022-12-11T14:11:01;39.47;;;20.92;;
56477;SDS011;42382;53.210;5.772;2022-12-11T14:13:32;43.35;;;22.35;;
56477;SDS011;42382;53.210;5.772;2022-12-11T14:16:00;39.10;;;21.90;;
56477;SDS011;42382;53.210;5.772;2022-12-11T14:18:27;42.90;;;22.02;;
56477;SDS011;42382;53.210;5.772;2022-12-11T14:20:56;42.83;;;23.25;;
56477;SDS011;42382;53.210;5.772;2022-12-11T14:23:27;43.13;;;22.45;;
56477;SDS011;42382;53.210;5.772;2022-12-11T14:25:58;49.47;;;24.80;;
56477;SDS011;42382;53.210;5.772;2022-12-11T14:28:42;53.25;;;27.85;;
56477;SDS011;42382;53.210;5.772;2022-12-11T14:31:12;41.83;;;22.27;;
56477;SDS011;42382;53.210;5.772;2022-12-11T14:33:54;44.35;;;22.40;;
56477;SDS011;42382;53.210;5.772;2022-12-11T14:36:26;41.25;;;22.02;;
56477;SDS011;42382;53.210;5.772;2022-12-11T14:38:58;41.38;;;20.80;;
56477;SDS011;42382;53.210;5.772;2022-12-11T14:44:11;45.10;;;23.17;;
56477;SDS011;42382;53.210;5.772;2022-12-11T14:46:47;40.80;;;21.65;;
56477;SDS011;42382;53.210;5.772;2022-12-11T14:49:24;42.88;;;22.80;;
56477;SDS011;42382;53.210;5.772;2022-12-11T14:52:14;42.80;;;22.08;;
56477;SDS011;42382;53.210;5.772;2022-12-11T14:54:44;43.13;;;23.08;;
56477;SDS011;42382;53.210;5.772;2022-12-11T14:57:19;45.05;;;24.15;;
56477;SDS011;42382;53.210;5.772;2022-12-11T14:59:48;46.97;;;23.30;;
56477;SDS011;42382;53.210;5.772;2022-12-11T15:02:27;43.30;;;22.60;;
56477;SDS011;42382;53.210;5.772;2022-12-11T15:05:00;46.65;;;23.90;;
56477;SDS011;42382;53.210;5.772;2022-12-11T15:07:52;40.00;;;21.83;;
56477;SDS011;42382;53.210;5.772;2022-12-11T15:11:08;42.03;;;22.00;;
56477;SDS011;42382;53.210;5.772;2022-12-11T15:13:26;43.55;;;22.75;;
56477;SDS011;42382;53.210;5.772;2022-12-11T15:15:52;43.97;;;23.33;;
56477;SDS011;42382;53.210;5.772;2022-12-11T15:18:23;39.85;;;20.98;;
56477;SDS011;42382;53.210;5.772;2022-12-11T15:21:04;43.13;;;21.95;;
56477;SDS011;42382;53.210;5.772;2022-12-11T15:26:16;43.05;;;20.77;;
56477;SDS011;42382;53.210;5.772;2022-12-11T15:28:43;42.08;;;21.17;;
56477;SDS011;42382;53.210;5.772;2022-12-11T15:31:25;36.70;;;19.88;;
56477;SDS011;42382;53.210;5.772;2022-12-11T15:33:52;41.53;;;19.90;;
56477;SDS011;42382;53.210;5.772;2022-12-11T15:36:38;43.95;;;21.77;;
56477;SDS011;42382;53.210;5.772;2022-12-11T15:39:03;40.17;;;19.60;;
56477;SDS011;42382;53.210;5.772;2022-12-11T15:41:32;39.35;;;20.77;;
56477;SDS011;42382;53.210;5.772;2022-12-11T15:43:59;38.28;;;19.98;;
56477;SDS011;42382;53.210;5.772;2022-12-11T15:46:27;36.80;;;19.13;;
56477;SDS011;42382;53.210;5.772;2022-12-11T15:48:54;35.75;;;19.08;;